Time;durP1;ratioP1;P1;durP2;ratioP2;P2;SDS_P1;SDS_P2;PMS_P1;PMS_P2;Temp;Humidity;BMP_temperature;BMP_pressure;BME280_temperature;BME280_humidity;BME280_pressure;Samples;Min_cycle;Max_cycle;Signal;HPM_P1;HPM_P2
2022/08/01 00:00:22;;;;;;;6.65;2.70;;;;;;;22.19;42.03;99683.31;5070362;28;20052;-67
2022/08/01 00:02:47;;;;;;;11.50;3.00;;;;;;;22.22;41.86;99685.63;5069695;28;20024;-68
2022/08/01 00:05:13;;;;;;;7.38;2.72;;;;;;;22.22;42.10;99680.25;5068210;28;20096;-68
2022/08/01 00:07:38;;;;;;;7.00;3.13;;;;;;;22.23;42.03;99678.38;5052223;28;20019;-68
2022/08/01 00:10:07;;;;;;;7.18;2.95;;;;;;;22.23;41.66;99681.91;5068908;28;20127;-65
2022/08/01 00:12:33;;;;;;;6.93;2.85;;;;;;;22.17;41.77;99682.66;5065407;28;20024;-67
2022/08/01 00:14:59;;;;;;;5.53;2.55;;;;;;;22.17;41.74;99673.78;5069624;28;20016;-69
2022/08/01 00:17:24;;;;;;;5.85;2.97;;;;;;;22.13;41.98;99673.28;5069942;28;20032;-67
2022/08/01 00:19:50;;;;;;;3.95;2.50;;;;;;;22.12;42.04;99671.66;5068292;28;20029;-66
2022/08/01 00:22:15;;;;;;;6.20;2.75;;;;;;;22.10;42.10;99668.31;5069375;28;20096;-73
2022/08/01 10:08:45;;;;;;;4.40;1.80;;;;;;;23.73;38.63;99613.22;5190209;27;20228;-67
2022/08/01 10:11:32;;;;;;;2.92;1.50;;;;;;;23.80;38.44;99604.28;5160619;27;20026;-71
2022/08/01 10:14:05;;;;;;;2.63;1.83;;;;;;;23.85;38.23;99615.31;5163303;27;20093;-69
2022/08/01 10:16:33;;;;;;;9.90;2.03;;;;;;;23.88;37.93;99601.38;5163339;27;20068;-70
2022/08/01 10:19:00;;;;;;;4.13;1.92;;;;;;;23.94;38.10;99603.25;5171025;27;20243;-72
2022/08/01 10:21:27;;;;;;;6.72;2.38;;;;;;;24.01;37.57;99597.88;5166312;27;20034;-73
2022/08/01 10:23:54;;;;;;;6.53;1.75;;;;;;;24.10;37.67;99603.91;5164115;27;20027;-73
2022/08/01 10:26:21;;;;;;;4.30;1.48;;;;;;;24.18;37.52;99609.13;5165687;27;20010;-73
2022/08/01 10:28:48;;;;;;;6.63;1.90;;;;;;;24.27;37.53;99607.84;5165626;27;20023;-73
2022/08/01 10:31:14;;;;;;;3.42;1.70;;;;;;;24.33;37.28;99607.03;5164380;27;20033;-73
2022/08/01 10:33:41;;;;;;;5.03;1.73;;;;;;;24.38;37.01;99607.22;5165774;27;20085;-73
2022/08/01 10:36:08;;;;;;;3.45;1.50;;;;;;;24.42;36.94;99604.09;5166212;27;20030;-73
2022/08/01 10:38:35;;;;;;;3.65;2.08;;;;;;;24.46;37.06;99600.75;5165928;27;20054;-73
2022/08/01 10:41:03;;;;;;;6.63;1.92;;;;;;;24.50;36.84;99603.84;5163341;27;20027;-72
2022/08/01 10:43:28;;;;;;;2.53;1.65;;;;;;;24.53;36.59;99600.72;5165538;27;20036;-73
2022/08/01 10:45:55;;;;;;;7.38;2.13;;;;;;;24.58;36.83;99609.06;5165687;27;20046;-73
2022/08/01 10:48:20;;;;;;;3.40;1.70;;;;;;;24.64;36.81;99604.66;5165517;27;20034;-72
2022/08/01 10:50:48;;;;;;;5.00;1.55;;;;;;;24.69;36.84;99610.28;5164828;27;20019;-73
2022/08/01 10:53:26;;;;;;;5.03;1.63;;;;;;;24.71;36.77;99594.69;5165263;27;20026;-73
2022/08/01 10:56:00;;;;;;;2.50;1.52;;;;;;;24.69;36.04;99596.75;5165260;27;20026;-73
2022/08/01 10:58:32;;;;;;;8.82;1.77;;;;;;;24.59;36.34;99604.47;5165113;27;20034;-73
2022/08/01 11:01:28;;;;;;;2.60;1.30;;;;;;;24.54;36.22;99602.41;5165029;27;20023;-73
2022/08/01 11:04:10;;;;;;;7.07;2.08;;;;;;;24.58;35.97;99592.81;5164920;27;20023;-73
2022/08/01 11:07:03;;;;;;;4.45;1.92;;;;;;;24.61;36.55;99595.13;5165325;27;20039;-73
2022/08/01 11:09:42;;;;;;;5.18;2.60;;;;;;;24.62;36.35;99588.66;5163301;27;20016;-73
2022/08/01 11:12:13;;;;;;;8.63;1.88;;;;;;;24.62;35.91;99582.41;5146933;27;20212;-73
2022/08/01 11:14:58;;;;;;;2.75;1.75;;;;;;;24.64;36.29;99583.03;5165204;27;20071;-72
2022/08/01 11:17:44;;;;;;;4.72;1.70;;;;;;;24.64;35.96;99583.84;5164897;27;20027;-74
2022/08/01 11:20:18;;;;;;;2.47;1.67;;;;;;;24.66;36.05;99580.94;5131350;27;20135;-73
2022/08/01 11:22:59;;;;;;;3.53;1.80;;;;;;;24.68;35.79;99576.97;5150994;27;20155;-74
2022/08/01 11:25:47;;;;;;;;;;;;;;;24.60;36.12;99563.69;5151307;27;20086;-74
2022/08/01 11:28:19;;;;;;;3.60;1.67;;;;;;;24.63;35.90;99573.25;5151322;27;19907;-74
2022/08/01 11:30:47;;;;;;;6.03;1.90;;;;;;;24.70;36.10;99567.84;5149526;27;20090;-72
2022/08/01 11:33:15;;;;;;;4.78;2.55;;;;;;;24.73;35.97;99565.53;5150914;27;20049;-73
2022/08/01 11:36:11;;;;;;;2.95;1.90;;;;;;;24.78;36.01;99565.75;5151614;27;20046;-73
2022/08/01 11:38:39;;;;;;;4.55;3.00;;;;;;;24.79;36.43;99566.56;5172081;27;20064;-72
2022/08/01 11:41:25;;;;;;;6.22;2.13;;;;;;;24.82;35.93;99572.41;5150820;27;20063;-73
2022/08/01 11:44:00;;;;;;;2.80;1.92;;;;;;;24.80;36.15;99568.22;5150669;27;20077;-73
2022/08/01 11:46:52;;;;;;;7.38;2.20;;;;;;;24.80;35.55;99560.94;5151131;27;20307;-73
2022/08/01 11:49:28;;;;;;;6.40;1.83;;;;;;;24.81;35.42;99564.47;5145069;27;20233;-74
2022/08/01 11:52:28;;;;;;;5.05;1.67;;;;;;;24.84;35.39;99564.06;5146118;27;20011;-73
2022/08/01 11:54:55;;;;;;;2.88;1.90;;;;;;;24.84;35.39;99553.22;5145351;27;20023;-73
2022/08/01 11:57:38;;;;;;;10.48;3.63;;;;;;;24.88;35.75;99557.16;5150403;27;20139;-74
2022/08/01 12:00:13;;;;;;;4.25;2.15;;;;;;;24.92;35.55;99553.00;5150767;27;20023;-73
2022/08/01 12:02:38;;;;;;;4.40;1.90;;;;;;;24.94;35.63;99550.06;5150063;27;20019;-73
2022/08/01 12:05:09;;;;;;;5.60;2.20;;;;;;;24.97;35.66;99547.75;5150309;27;20025;-73
2022/08/01 12:07:36;;;;;;;;;;;;;;;24.93;35.90;99543.81;5150238;27;20047;-73
2022/08/01 12:10:12;;;;;;;3.85;2.17;;;;;;;24.97;36.14;99542.34;5140912;27;19911;-73
2022/08/01 12:12:46;;;;;;;2.88;1.60;;;;;;;25.01;35.65;99550.84;5150281;27;20144;-72
2022/08/01 12:15:13;;;;;;;3.63;1.70;;;;;;;25.05;35.59;99546.69;5150587;27;20018;-72
2022/08/01 12:17:39;;;;;;;4.70;2.15;;;;;;;25.08;36.03;99550.81;5150187;27;20025;-73
2022/08/01 12:20:08;;;;;;;4.65;1.83;;;;;;;25.11;36.02;99542.28;5135279;27;20035;-73
2022/08/01 12:22:34;;;;;;;2.35;1.77;;;;;;;25.12;36.08;99543.94;5147346;27;20030;-73
2022/08/01 12:25:13;;;;;;;4.35;1.95;;;;;;;25.13;35.75;99546.44;5149807;27;20019;-73
2022/08/01 12:27:41;;;;;;;2.90;1.58;;;;;;;25.15;36.03;99540.81;5149679;27;20023;-72
2022/08/01 12:30:09;;;;;;;4.32;1.95;;;;;;;25.16;36.00;99541.63;5147028;27;20064;-73
2022/08/01 12:32:37;;;;;;;3.33;1.73;;;;;;;25.18;35.53;99537.66;5149652;27;20056;-73
2022/08/01 12:35:08;;;;;;;2.28;1.70;;;;;;;25.20;35.80;99546.41;5149787;27;20019;-71
2022/08/01 12:37:47;;;;;;;1.92;1.50;;;;;;;25.21;35.81;99548.06;5149752;27;20018;-72
2022/08/01 12:40:18;;;;;;;4.88;2.10;;;;;;;25.21;35.30;99530.97;5134806;27;20039;-72
2022/08/01 12:42:47;;;;;;;3.40;1.75;;;;;;;25.24;35.05;99527.84;5137352;27;20022;-73
2022/08/01 12:45:16;;;;;;;2.92;1.98;;;;;;;25.23;34.86;99529.69;5149220;27;20015;-72
2022/08/01 12:47:42;;;;;;;4.32;1.70;;;;;;;25.24;34.92;99528.66;5149410;27;20091;-72
2022/08/01 12:50:12;;;;;;;6.07;1.98;;;;;;;25.25;34.80;99529.50;5136741;27;20026;-73
2022/08/01 12:52:38;;;;;;;3.25;1.98;;;;;;;25.25;35.06;99524.09;5149420;27;20026;-73
2022/08/01 12:55:14;;;;;;;6.45;1.80;;;;;;;25.25;34.52;99522.19;5149382;27;20023;-71
2022/08/01 12:57:44;;;;;;;4.05;1.70;;;;;;;25.26;34.47;99518.44;5149594;27;20047;-73
2022/08/01 13:00:20;;;;;;;3.20;1.55;;;;;;;25.26;34.48;99517.63;5147722;27;20049;-72
2022/08/01 13:02:47;;;;;;;3.20;2.00;;;;;;;25.26;34.86;99517.63;5148801;27;20055;-72
2022/08/01 13:05:14;;;;;;;2.97;1.90;;;;;;;25.25;34.92;99511.38;5149349;27;20022;-72
2022/08/01 13:07:47;;;;;;;3.47;1.77;;;;;;;25.27;34.74;99514.69;5149144;27;20034;-73
2022/08/01 13:10:15;;;;;;;2.75;1.65;;;;;;;25.27;34.36;99517.41;5147342;27;20033;-73
2022/08/01 13:12:50;;;;;;;4.10;1.70;;;;;;;25.26;34.35;99510.31;5148979;27;20120;-72
2022/08/01 13:15:24;;;;;;;5.70;1.83;;;;;;;25.28;34.60;99512.81;5142103;27;20136;-72
2022/08/01 13:17:53;;;;;;;4.47;1.95;;;;;;;25.27;34.79;99514.69;5148168;27;20014;-72
2022/08/01 13:20:37;;;;;;;5.80;1.83;;;;;;;25.27;34.79;99505.75;5139141;27;20239;-71
2022/08/01 13:23:20;;;;;;;3.22;1.80;;;;;;;25.27;35.00;99509.28;5135957;27;20086;-71
2022/08/01 13:25:55;;;;;;;8.27;2.20;;;;;;;25.27;35.41;99503.84;5149272;27;20019;-71
2022/08/01 13:28:27;;;;;;;3.83;2.08;;;;;;;25.27;35.34;99509.28;5146394;27;20049;-72
2022/08/01 13:31:03;;;;;;;3.05;1.70;;;;;;;25.26;35.13;99509.50;5148637;27;20027;-71
2022/08/01 13:33:42;;;;;;;3.63;2.53;;;;;;;25.26;34.92;99504.91;5148098;27;20026;-71
2022/08/01 13:36:08;;;;;;;3.03;1.95;;;;;;;25.24;34.59;99503.47;5148433;27;20023;-71
2022/08/01 13:41:17;;;;;;;3.95;2.20;;;;;;;25.25;35.13;99514.06;5148669;27;20041;-72
2022/08/01 13:43:43;;;;;;;4.65;1.92;;;;;;;25.22;35.00;99511.78;5148323;27;20243;-73
2022/08/01 13:46:08;;;;;;;5.47;2.10;;;;;;;25.22;34.83;99517.22;5130597;27;20142;-72
2022/08/01 13:48:34;;;;;;;2.63;1.65;;;;;;;25.21;35.18;99515.56;5137409;27;20169;-72
2022/08/01 13:51:00;;;;;;;5.63;2.25;;;;;;;25.22;35.36;99517.22;5143701;27;20034;-72
2022/08/01 13:53:25;;;;;;;3.97;1.85;;;;;;;25.22;35.50;99517.22;5148511;27;20061;-73
2022/08/01 13:55:51;;;;;;;3.00;1.77;;;;;;;25.18;34.87;99504.31;5148773;27;20238;-73
2022/08/01 13:58:16;;;;;;;4.55;1.90;;;;;;;25.21;35.06;99517.44;5138405;27;20027;-73
2022/08/01 14:00:42;;;;;;;8.15;2.38;;;;;;;25.22;34.80;99511.78;5143937;27;20090;-73
2022/08/01 14:03:09;;;;;;;4.63;2.83;;;;;;;25.22;35.55;99510.97;5148242;27;20038;-73
2022/08/01 14:05:36;;;;;;;3.47;2.00;;;;;;;25.23;35.62;99518.06;5147783;28;20027;-71
2022/08/01 14:08:01;;;;;;;5.30;1.92;;;;;;;25.23;35.11;99512.63;5139064;28;20035;-72
2022/08/01 14:10:27;;;;;;;3.25;1.52;;;;;;;25.22;35.29;99514.50;5129735;28;20029;-72
2022/08/01 14:12:54;;;;;;;3.58;2.00;;;;;;;25.24;35.16;99519.72;5148586;28;20029;-74
2022/08/01 14:15:20;;;;;;;3.20;1.98;;;;;;;25.22;35.17;99517.22;5148538;28;20103;-72
2022/08/01 14:17:45;;;;;;;3.67;1.60;;;;;;;25.23;35.74;99516.16;5147297;28;20241;-74
2022/08/01 14:20:11;;;;;;;7.82;1.98;;;;;;;25.25;35.47;99518.66;5139621;28;20098;-73
2022/08/01 14:22:36;;;;;;;3.47;1.70;;;;;;;25.24;35.61;99514.31;5146007;28;20019;-73
2022/08/01 14:25:02;;;;;;;5.25;1.73;;;;;;;25.25;35.72;99513.25;5147837;28;20102;-71
2022/08/01 14:27:30;;;;;;;3.53;1.70;;;;;;;25.25;35.63;99508.66;5147771;28;20019;-73
2022/08/01 14:29:56;;;;;;;8.48;2.05;;;;;;;25.25;35.41;99511.38;5147447;28;20035;-73
2022/08/01 14:32:21;;;;;;;6.53;1.40;;;;;;;25.22;35.23;99505.56;5145808;28;20129;-71
2022/08/01 14:34:47;;;;;;;5.97;2.00;;;;;;;25.24;35.08;99511.59;5148049;28;20030;-70
2022/08/01 14:37:12;;;;;;;4.43;1.85;;;;;;;25.24;35.04;99514.31;5147323;28;20027;-73
2022/08/01 14:39:38;;;;;;;6.75;1.70;;;;;;;25.24;34.62;99512.41;5148179;28;20053;-73
2022/08/01 14:42:03;;;;;;;4.28;1.60;;;;;;;25.23;34.62;99513.44;5145832;28;20019;-72
2022/08/01 14:44:29;;;;;;;8.25;1.88;;;;;;;25.20;34.37;99507.66;5148111;28;20094;-74
2022/08/01 14:46:54;;;;;;;4.45;1.48;;;;;;;25.16;34.10;99503.72;5147176;28;20236;-73
2022/08/01 14:49:20;;;;;;;5.28;1.73;;;;;;;25.12;34.14;99512.28;5146651;28;20038;-73
2022/08/01 14:51:45;;;;;;;6.13;2.30;;;;;;;25.10;34.23;99511.69;5126154;28;20019;-72
2022/08/01 14:54:11;;;;;;;3.13;1.40;;;;;;;25.09;34.06;99510.00;5145505;27;20086;-73
2022/08/01 14:56:36;;;;;;;6.25;1.73;;;;;;;25.10;34.21;99505.41;5152106;27;20072;-73
2022/08/01 14:59:02;;;;;;;4.95;1.90;;;;;;;25.11;34.28;99509.78;5151505;27;20035;-73
2022/08/01 15:01:27;;;;;;;3.03;1.40;;;;;;;25.10;34.60;99500.84;5151727;27;20099;-72
2022/08/01 15:03:53;;;;;;;4.60;1.63;;;;;;;25.10;34.72;99506.25;5149134;27;20061;-71
2022/08/01 15:06:18;;;;;;;2.38;1.45;;;;;;;25.08;34.43;99494.81;5151441;27;20023;-71
2022/08/01 15:08:44;;;;;;;1.90;1.35;;;;;;;25.06;34.24;99490.69;5151657;27;20023;-74
2022/08/01 15:11:09;;;;;;;6.38;2.38;;;;;;;25.07;34.32;99495.03;5151505;27;20211;-73
2022/08/01 15:13:35;;;;;;;3.97;2.00;;;;;;;25.08;34.29;99500.22;5141883;27;20039;-73
2022/08/01 15:16:01;;;;;;;5.43;2.05;;;;;;;25.07;34.51;99495.03;5131165;28;20011;-73
2022/08/01 15:18:28;;;;;;;4.05;1.90;;;;;;;25.08;34.83;99499.38;5136872;27;20015;-73
2022/08/01 15:20:53;;;;;;;4.28;2.13;;;;;;;25.05;34.92;99494.44;5151382;27;20080;-73
2022/08/01 15:23:19;;;;;;;3.05;1.50;;;;;;;25.07;34.56;99500.47;5148000;27;20154;-73
2022/08/01 15:25:44;;;;;;;5.57;1.80;;;;;;;25.06;34.49;99501.50;5151005;27;20027;-73
2022/08/01 15:28:10;;;;;;;2.72;1.50;;;;;;;25.06;34.63;99493.38;5150918;27;20123;-73
2022/08/01 15:30:36;;;;;;;4.70;2.17;;;;;;;25.08;34.77;99496.69;5151179;27;20186;-72
2022/08/01 15:33:01;;;;;;;2.80;1.80;;;;;;;25.07;35.12;99486.94;5149536;27;20063;-73
2022/08/01 15:35:27;;;;;;;4.57;2.10;;;;;;;25.07;34.70;99487.75;5150874;27;20033;-73
2022/08/01 15:37:52;;;;;;;4.88;1.60;;;;;;;25.04;35.02;99485.47;5150806;27;20022;-72
2022/08/01 15:40:18;;;;;;;3.78;1.80;;;;;;;25.06;34.98;99479.84;5150802;27;20138;-73
2022/08/01 15:42:44;;;;;;;2.78;1.73;;;;;;;25.04;34.99;99480.06;5144288;27;20047;-73
2022/08/01 15:45:10;;;;;;;4.63;1.58;;;;;;;25.06;34.96;99482.56;5132129;27;20035;-73
2022/08/01 15:47:35;;;;;;;6.40;2.40;;;;;;;25.06;35.02;99485.25;5150670;27;20023;-73
2022/08/01 15:50:01;;;;;;;8.70;2.22;;;;;;;25.05;35.38;99483.59;5150333;27;20026;-73
2022/08/01 15:52:27;;;;;;;3.55;1.98;;;;;;;25.03;35.16;99481.09;5145240;27;20027;-73
2022/08/01 15:54:53;;;;;;;6.57;1.77;;;;;;;25.05;35.17;99481.72;5130424;28;20158;-73
2022/08/01 15:57:18;;;;;;;2.20;1.60;;;;;;;25.04;35.34;99477.34;5134709;27;20015;-72
2022/08/01 15:59:44;;;;;;;3.67;1.90;;;;;;;25.06;35.38;99482.56;5150603;27;20027;-73
2022/08/01 16:02:09;;;;;;;3.88;1.92;;;;;;;25.05;35.57;99479.00;5148972;27;20068;-73
2022/08/01 16:04:35;;;;;;;3.72;1.85;;;;;;;25.07;35.93;99487.75;5150381;27;20047;-72
2022/08/01 16:07:00;;;;;;;7.40;2.08;;;;;;;25.09;35.75;99479.38;5135590;27;20030;-73
2022/08/01 16:09:26;;;;;;;3.25;1.92;;;;;;;25.09;35.77;99476.69;5149677;27;20054;-73
2022/08/01 16:11:52;;;;;;;4.57;1.80;;;;;;;25.08;36.40;99483.13;5148720;27;20016;-73
2022/08/01 16:14:17;;;;;;;4.32;2.03;;;;;;;25.08;36.05;99486.69;5150711;27;20051;-73
2022/08/01 16:16:43;;;;;;;7.70;1.85;;;;;;;25.08;36.13;99483.13;5150419;27;20120;-73
2022/08/01 16:19:08;;;;;;;6.53;1.70;;;;;;;25.07;36.00;99487.75;5149581;27;20233;-72
2022/08/01 16:21:34;;;;;;;5.60;2.00;;;;;;;25.08;35.57;99489.41;5148594;27;20035;-72
2022/08/01 16:23:59;;;;;;;2.70;1.70;;;;;;;25.07;35.80;99487.75;5149807;27;20030;-73
2022/08/01 16:26:25;;;;;;;2.58;1.60;;;;;;;25.07;35.80;99476.09;5150264;27;20228;-73
2022/08/01 16:28:51;;;;;;;5.20;1.88;;;;;;;25.07;35.72;99492.34;5150172;27;20113;-73
2022/08/01 16:31:18;;;;;;;3.45;1.67;;;;;;;25.04;35.73;99485.47;5148656;27;20019;-73
2022/08/01 16:33:45;;;;;;;3.85;1.90;;;;;;;25.04;35.69;99488.16;5142922;27;20090;-73
2022/08/01 16:36:10;;;;;;;3.15;1.63;;;;;;;25.02;35.94;99487.56;5159743;27;20027;-73
2022/08/01 16:38:36;;;;;;;2.88;1.58;;;;;;;24.99;36.31;99488.00;5156635;27;20029;-72
2022/08/01 16:41:01;;;;;;;4.25;1.45;;;;;;;24.97;36.28;99484.69;5149017;27;20162;-72
2022/08/01 16:43:27;;;;;;;3.65;1.85;;;;;;;24.95;35.97;99495.72;5147791;27;20023;-72
2022/08/01 16:45:52;;;;;;;3.03;1.77;;;;;;;24.95;35.80;99486.78;5145256;27;20239;-73
2022/08/01 16:48:18;;;;;;;4.32;1.70;;;;;;;24.94;35.99;99494.03;5149196;27;20035;-73
2022/08/01 16:50:48;;;;;;;5.20;2.40;;;;;;;24.93;36.40;99494.28;5149361;27;20038;-72
2022/08/01 16:53:20;;;;;;;4.47;1.88;;;;;;;24.93;36.36;99494.28;5148316;27;20022;-73
2022/08/01 16:55:46;;;;;;;4.25;1.58;;;;;;;24.91;36.36;99491.81;5149794;27;20053;-73
2022/08/01 16:58:13;;;;;;;5.45;1.67;;;;;;;24.91;36.39;99497.22;5149132;27;20132;-73
2022/08/01 17:00:41;;;;;;;3.88;2.00;;;;;;;24.91;36.37;99499.91;5148751;27;20023;-72
2022/08/01 17:03:10;;;;;;;5.72;2.65;;;;;;;24.90;36.37;99495.56;5136200;27;20019;-73
2022/08/01 17:05:37;;;;;;;6.28;1.70;;;;;;;24.89;36.20;99501.16;5148936;27;20022;-72
2022/08/01 17:08:04;;;;;;;6.75;1.77;;;;;;;24.86;36.39;99501.59;5130592;27;20043;-73
2022/08/01 17:10:30;;;;;;;3.60;1.80;;;;;;;24.84;36.28;99504.53;5148768;27;20023;-73
2022/08/01 17:12:55;;;;;;;2.83;1.50;;;;;;;24.80;36.75;99498.72;5148985;27;20034;-72
2022/08/01 17:15:21;;;;;;;6.00;1.63;;;;;;;24.77;36.33;99503.72;5150077;27;20023;-73
2022/08/01 17:17:46;;;;;;;4.68;1.95;;;;;;;24.74;36.49;99504.16;5148048;27;20015;-73
2022/08/01 17:20:12;;;;;;;3.88;1.70;;;;;;;24.70;36.89;99497.50;5133584;27;20039;-73
2022/08/01 17:22:37;;;;;;;4.80;1.70;;;;;;;24.70;36.75;99497.50;5131219;27;20121;-73
2022/08/01 17:25:03;;;;;;;3.08;1.77;;;;;;;24.69;37.04;99502.06;5148587;27;20011;-74
2022/08/01 17:27:28;;;;;;;3.90;1.70;;;;;;;24.65;36.97;99503.53;5139354;27;20027;-73
2022/08/01 17:29:54;;;;;;;4.10;1.65;;;;;;;24.63;37.41;99506.44;5148601;27;20236;-74
2022/08/01 17:32:19;;;;;;;3.25;2.05;;;;;;;24.59;36.84;99502.53;5148340;27;20117;-74
2022/08/01 17:34:45;;;;;;;5.35;1.80;;;;;;;24.61;37.48;99500.44;5148245;27;20034;-72
2022/08/01 17:37:10;;;;;;;2.75;1.58;;;;;;;24.60;37.35;99503.34;5147748;27;20090;-73
2022/08/01 17:39:36;;;;;;;9.63;2.65;;;;;;;24.59;37.67;99509.78;5148074;27;20023;-73
2022/08/01 17:42:02;;;;;;;5.22;2.65;;;;;;;24.53;37.90;99504.22;5148139;27;20197;-73
2022/08/01 17:44:27;;;;;;;5.82;2.38;;;;;;;24.50;37.66;99503.78;5148669;27;20272;-73
2022/08/01 17:46:53;;;;;;;3.95;2.20;;;;;;;24.46;38.06;99511.50;5148460;27;20027;-73
2022/08/01 17:49:21;;;;;;;2.92;1.90;;;;;;;24.41;37.99;99505.88;5148190;27;20010;-73
2022/08/01 17:51:46;;;;;;;5.60;2.10;;;;;;;24.42;37.87;99509.44;5147711;27;20031;-74
2022/08/01 17:54:12;;;;;;;4.75;2.28;;;;;;;24.42;37.94;99504.84;5148346;27;20039;-73
2022/08/01 17:56:37;;;;;;;6.68;2.72;;;;;;;24.42;38.24;99506.72;5147819;27;20180;-72
2022/08/01 17:59:03;;;;;;;4.63;2.20;;;;;;;24.40;38.10;99512.38;5148327;27;20067;-72
2022/08/01 18:01:28;;;;;;;5.38;2.13;;;;;;;24.36;38.37;99505.72;5146379;27;20096;-73
2022/08/01 18:03:55;;;;;;;10.80;5.57;;;;;;;24.29;38.46;99510.28;5147810;27;20260;-73
2022/08/01 18:06:21;;;;;;;8.18;3.00;;;;;;;24.26;38.56;99514.25;5148067;27;20023;-72
2022/08/01 18:08:47;;;;;;;6.03;2.85;;;;;;;24.23;38.80;99520.09;5148450;27;20033;-73
2022/08/01 18:11:15;;;;;;;5.93;2.65;;;;;;;24.21;38.59;99519.47;5134023;28;20108;-74
2022/08/01 18:13:41;;;;;;;7.80;3.10;;;;;;;24.16;38.88;99514.69;5147650;28;20019;-73
2022/08/01 18:16:07;;;;;;;4.90;2.78;;;;;;;24.18;38.99;99518.03;5147464;28;20068;-73
2022/08/01 18:18:34;;;;;;;8.02;3.67;;;;;;;24.13;39.19;99515.09;5147717;28;20181;-72
2022/08/01 18:21:02;;;;;;;7.22;2.95;;;;;;;24.11;38.97;99521.78;5133795;28;20077;-74
2022/08/01 18:23:28;;;;;;;4.30;3.17;;;;;;;24.07;38.98;99522.19;5147698;28;20031;-72
2022/08/01 18:25:53;;;;;;;10.45;3.92;;;;;;;24.10;39.15;99520.09;5147784;28;20025;-72
2022/08/01 18:28:19;;;;;;;10.15;3.55;;;;;;;24.11;39.12;99521.78;5148376;27;20145;-71
2022/08/01 18:30:44;;;;;;;7.85;3.03;;;;;;;24.08;39.05;99531.16;5138842;27;20095;-71
2022/08/01 18:33:10;;;;;;;9.25;3.17;;;;;;;24.04;39.14;99533.41;5144330;27;20144;-72
2022/08/01 18:35:35;;;;;;;5.00;2.85;;;;;;;24.02;39.41;99529.25;5151972;27;20019;-72
2022/08/01 18:38:01;;;;;;;5.82;3.25;;;;;;;24.01;39.50;99530.31;5152267;27;20029;-72
2022/08/01 18:40:26;;;;;;;7.35;2.78;;;;;;;23.97;39.30;99535.31;5150524;27;20089;-72
2022/08/01 18:42:53;;;;;;;15.23;3.13;;;;;;;23.95;39.06;99533.84;5151935;27;20015;-71
2022/08/01 18:45:19;;;;;;;7.85;3.75;;;;;;;23.94;39.03;99538.38;5169877;27;20022;-72
2022/08/01 18:47:46;;;;;;;7.63;3.10;;;;;;;23.93;38.98;99534.88;5163923;27;20034;-71
2022/08/01 18:50:11;;;;;;;5.57;2.80;;;;;;;23.95;39.38;99529.25;5148700;27;20018;-72
2022/08/01 18:52:37;;;;;;;7.82;3.47;;;;;;;23.92;39.10;99529.66;5151861;27;20063;-73
2022/08/01 18:55:02;;;;;;;7.85;3.45;;;;;;;23.91;39.11;99522.59;5152688;27;20031;-71
2022/08/01 18:57:28;;;;;;;9.40;4.22;;;;;;;23.91;39.48;99518.03;5145605;27;20047;-72
2022/08/01 18:59:54;;;;;;;10.48;4.63;;;;;;;23.95;39.38;99523.84;5151801;27;20280;-72
2022/08/01 19:02:19;;;;;;;11.13;5.43;;;;;;;23.98;39.27;99523.47;5151759;27;20027;-71
2022/08/01 19:04:45;;;;;;;33.10;16.55;;;;;;;23.99;39.21;99524.28;5151729;27;20030;-71
2022/08/01 19:07:10;;;;;;;57.95;35.63;;;;;;;23.95;39.46;99526.53;5149408;27;20038;-72
2022/08/01 19:09:36;;;;;;;51.63;34.50;;;;;;;23.96;39.25;99533.63;5151883;27;20026;-72
2022/08/01 19:12:03;;;;;;;58.53;36.72;;;;;;;23.93;39.62;99529.47;5151769;27;20019;-71
2022/08/01 19:14:29;;;;;;;46.70;26.83;;;;;;;23.93;39.62;99521.34;5151908;27;20079;-72
2022/08/01 19:16:55;;;;;;;36.65;24.05;;;;;;;23.94;39.78;99530.28;5150246;27;20015;-72
2022/08/01 19:19:21;;;;;;;41.53;23.98;;;;;;;23.90;39.76;99529.88;5150621;27;20030;-72
2022/08/01 19:21:46;;;;;;;17.92;10.40;;;;;;;23.87;39.39;99533.00;5151236;27;20027;-71
2022/08/01 19:24:21;;;;;;;33.58;16.98;;;;;;;23.83;39.88;99528.22;5151646;27;20026;-71
2022/08/01 19:27:05;;;;;;;23.92;15.65;;;;;;;23.82;39.67;99529.25;5133679;27;20016;-72
2022/08/01 19:29:33;;;;;;;30.95;14.85;;;;;;;23.78;39.75;99537.75;5151167;27;20019;-71
2022/08/01 19:32:00;;;;;;;10.25;6.97;;;;;;;23.76;39.82;99530.91;5152429;27;20019;-72
2022/08/01 19:34:27;;;;;;;21.08;10.10;;;;;;;23.71;39.76;99536.94;5155855;27;20042;-70
2022/08/01 19:36:54;;;;;;;7.78;4.47;;;;;;;23.71;39.97;99542.34;5149920;27;20116;-72
2022/08/01 19:39:22;;;;;;;9.93;6.10;;;;;;;23.69;39.92;99536.31;5150860;27;20094;-71
2022/08/01 19:41:49;;;;;;;8.95;5.07;;;;;;;23.68;39.98;99540.06;5150668;27;20054;-72
2022/08/01 19:44:18;;;;;;;11.60;4.90;;;;;;;23.63;39.78;99537.13;5134325;27;20030;-71
2022/08/01 19:46:44;;;;;;;7.30;3.85;;;;;;;23.65;39.83;99545.88;5148594;27;20030;-72
2022/08/01 19:49:17;;;;;;;9.88;4.22;;;;;;;23.64;40.01;99548.78;5150409;27;20216;-72
2022/08/01 19:51:48;;;;;;;7.00;4.32;;;;;;;23.60;39.96;99549.19;5167158;27;20048;-72
2022/08/01 19:54:17;;;;;;;9.32;5.88;;;;;;;23.58;40.04;99548.56;5169284;27;20028;-71
2022/08/01 19:56:45;;;;;;;13.70;5.05;;;;;;;23.56;39.88;99544.41;5134065;27;20026;-73
2022/08/01 19:59:20;;;;;;;9.65;4.88;;;;;;;23.56;40.15;99539.81;5156756;27;20021;-72
2022/08/01 20:01:47;;;;;;;9.73;4.85;;;;;;;23.53;40.12;99542.94;5166081;27;20090;-72
2022/08/01 20:04:16;;;;;;;10.25;4.43;;;;;;;23.52;40.25;99540.44;5148289;27;20042;-72
2022/08/01 20:06:42;;;;;;;10.55;3.72;;;;;;;23.47;40.49;99544.59;5150272;27;20062;-73
2022/08/01 20:09:08;;;;;;;8.15;3.83;;;;;;;23.45;40.17;99535.88;5150723;27;20026;-72
2022/08/01 20:11:35;;;;;;;7.55;3.50;;;;;;;23.44;40.34;99541.47;5150634;27;20023;-73
2022/08/01 20:14:01;;;;;;;6.85;3.45;;;;;;;23.42;40.20;99539.00;5143520;27;20251;-72
2022/08/01 20:16:28;;;;;;;6.30;3.00;;;;;;;23.40;40.34;99530.25;5141660;27;20042;-72
2022/08/01 20:18:54;;;;;;;8.57;3.72;;;;;;;23.39;40.27;99527.75;5140932;27;20043;-72
2022/08/01 20:21:23;;;;;;;8.68;3.90;;;;;;;23.41;40.48;99544.59;5150184;27;20272;-71
2022/08/01 20:23:50;;;;;;;7.72;2.78;;;;;;;23.39;40.43;99542.09;5137161;27;20042;-71
2022/08/01 20:26:17;;;;;;;5.13;2.60;;;;;;;23.33;40.46;99542.09;5150394;27;20034;-72
2022/08/01 20:28:46;;;;;;;5.07;2.72;;;;;;;23.27;40.46;99536.47;5149545;27;20030;-72
2022/08/01 20:31:13;;;;;;;5.95;2.80;;;;;;;23.26;40.42;99548.28;5149984;27;20181;-72
2022/08/01 20:33:40;;;;;;;4.18;2.35;;;;;;;23.25;40.64;99548.50;5147726;27;20047;-70
2022/08/01 20:36:06;;;;;;;6.32;2.47;;;;;;;23.24;40.63;99544.16;5149587;27;20023;-70
2022/08/01 20:38:33;;;;;;;6.72;2.38;;;;;;;23.23;40.52;99551.44;5149664;27;20075;-71
2022/08/01 20:41:02;;;;;;;5.68;2.67;;;;;;;23.25;40.57;99553.91;5148430;27;20065;-70
2022/08/01 20:43:28;;;;;;;3.80;2.55;;;;;;;23.28;40.73;99557.03;5142003;27;20030;-71
2022/08/01 20:45:54;;;;;;;4.95;1.98;;;;;;;23.24;40.75;99555.75;5149120;27;20068;-72
2022/08/01 20:48:20;;;;;;;4.60;2.28;;;;;;;23.23;40.69;99564.91;5149018;27;20023;-72
2022/08/01 20:53:35;;;;;;;5.07;2.63;;;;;;;23.12;40.98;99552.81;5148864;27;20117;-72
2022/08/01 20:56:16;;;;;;;10.05;2.67;;;;;;;23.14;40.89;99558.84;5132316;27;20023;-71
2022/08/01 20:59:05;;;;;;;11.93;2.58;;;;;;;23.13;40.77;99562.56;5142438;27;20193;-68
2022/08/01 21:01:46;;;;;;;5.57;1.90;;;;;;;23.12;41.17;99552.81;5147347;27;20037;-72
2022/08/01 21:04:17;;;;;;;6.47;2.65;;;;;;;23.09;41.22;99565.84;5149388;27;20055;-72
2022/08/01 21:06:52;;;;;;;6.13;2.70;;;;;;;23.08;41.23;99561.50;5140742;27;20066;-72
2022/08/01 21:09:22;;;;;;;6.15;2.65;;;;;;;23.08;41.16;99564.22;5149477;27;20027;-71
2022/08/01 21:11:56;;;;;;;4.07;2.50;;;;;;;23.05;41.18;99564.59;5141801;27;20023;-71
2022/08/01 21:14:47;;;;;;;6.50;2.28;;;;;;;23.01;41.48;99559.63;5149046;27;20208;-71
2022/08/01 21:17:32;;;;;;;5.38;2.67;;;;;;;22.92;41.42;99557.28;5148068;27;20046;-71
2022/08/01 21:20:04;;;;;;;5.43;2.78;;;;;;;22.88;41.70;99554.16;5146481;27;20051;-71
2022/08/01 21:23:01;;;;;;;7.50;2.80;;;;;;;22.85;41.49;99563.50;5148199;27;20031;-72
2022/08/01 21:25:32;;;;;;;6.38;2.65;;;;;;;22.83;41.78;99557.47;5149129;27;20090;-71
2022/08/01 21:27:59;;;;;;;7.72;2.88;;;;;;;22.85;41.87;99557.25;5149191;27;20023;-71